TimeCST,TemperatureF,Dew PointF,Humidity,Sea Level PressureIn,VisibilityMPH,Wind Direction,Wind SpeedMPH,Gust SpeedMPH,PrecipitationIn,Events,Conditions,WindDirDegrees,DateUTC
12:51 AM,34.0,28.0,79,30.12,10.0,Calm,Calm,-,N/A,,Clear,0,2013-02-13 06:51:00
1:51 AM,35.1,28.0,76,30.13,10.0,WNW,4.6,-,N/A,,Clear,300,2013-02-13 07:51:00
2:51 AM,32.0,27.0,82,30.13,10.0,WSW,4.6,-,N/A,,Clear,250,2013-02-13 08:51:00
3:51 AM,30.0,26.1,85,30.14,10.0,SSW,3.5,-,N/A,,Clear,200,2013-02-13 09:51:00
4:51 AM,28.9,26.1,89,30.14,10.0,West,4.6,-,N/A,,Clear,260,2013-02-13 10:51:00
5:51 AM,27.0,24.1,89,30.15,10.0,West,4.6,-,N/A,,Clear,260,2013-02-13 11:51:00
6:51 AM,30.0,26.1,85,30.17,10.0,WSW,6.9,-,N/A,,Clear,250,2013-02-13 12:51:00
7:51 AM,30.0,26.1,85,30.18,10.0,WSW,5.8,-,N/A,,Clear,250,2013-02-13 13:51:00
8:51 AM,34.0,28.9,82,30.19,10.0,WSW,9.2,-,N/A,,Clear,250,2013-02-13 14:51:00
9:51 AM,41.0,30.9,67,30.19,10.0,West,8.1,-,N/A,,Clear,270,2013-02-13 15:51:00
10:51 AM,48.9,32.0,52,30.17,10.0,WNW,5.8,-,N/A,,Clear,290,2013-02-13 16:51:00
11:51 AM,54.0,28.0,37,30.15,10.0,West,8.1,-,N/A,,Clear,270,2013-02-13 17:51:00
12:51 PM,57.0,24.1,28,30.11,10.0,Variable,6.9,-,N/A,,Clear,0,2013-02-13 18:51:00
1:51 PM,59.0,21.9,24,30.07,10.0,Calm,Calm,-,N/A,,Clear,0,2013-02-13 19:51:00
2:51 PM,60.1,19.9,21,30.04,10.0,West,8.1,-,N/A,,Clear,280,2013-02-13 20:51:00
3:51 PM,62.1,18.0,18,30.02,10.0,SSW,8.1,-,N/A,,Clear,210,2013-02-13 21:51:00
4:51 PM,62.1,16.0,17,30.01,10.0,WSW,5.8,-,N/A,,Clear,240,2013-02-13 22:51:00
5:51 PM,61.0,18.0,19,30.00,10.0,SE,3.5,-,N/A,,Clear,140,2013-02-13 23:51:00
6:51 PM,55.0,21.0,27,30.01,10.0,SE,6.9,-,N/A,,Clear,130,2013-02-14 00:51:00
7:51 PM,50.0,24.1,36,30.04,10.0,SE,3.5,-,N/A,,Clear,130,2013-02-14 01:51:00
8:51 PM,48.0,26.1,42,30.04,10.0,SSE,8.1,-,N/A,,Clear,160,2013-02-14 02:51:00
9:51 PM,45.0,26.1,48,30.05,10.0,SSE,8.1,-,N/A,,Clear,160,2013-02-14 03:51:00
10:51 PM,42.1,25.0,51,30.05,10.0,SSW,6.9,-,N/A,,Clear,200,2013-02-14 04:51:00
11:51 PM,39.9,25.0,55,30.06,10.0,Calm,Calm,-,N/A,,Clear,0,2013-02-14 05:51:00